sensor_id;sensor_type;location;lat;lon;timestamp;temperature;humidity
25568;DHT22;13455;51.480;7.594;2023-02-11T00:01:07;6.40;99.90
25568;DHT22;13455;51.480;7.594;2023-02-11T00:03:33;6.30;99.90
25568;DHT22;13455;51.480;7.594;2023-02-11T00:06:00;6.40;99.90
25568;DHT22;13455;51.480;7.594;2023-02-11T00:08:26;6.30;99.90
25568;DHT22;13455;51.480;7.594;2023-02-11T00:10:53;6.30;99.90
25568;DHT22;13455;51.480;7.594;2023-02-11T00:13:19;6.40;99.90
25568;DHT22;13455;51.480;7.594;2023-02-11T00:15:45;6.40;99.90
25568;DHT22;13455;51.480;7.594;2023-02-11T00:18:11;6.40;99.90
25568;DHT22;13455;51.480;7.594;2023-02-11T00:20:40;6.30;99.90
25568;DHT22;13455;51.480;7.594;2023-02-11T00:23:06;6.30;99.90
25568;DHT22;13455;51.480;7.594;2023-02-11T00:25:31;6.30;99.90
25568;DHT22;13455;51.480;7.594;2023-02-11T00:27:57;6.30;99.90
25568;DHT22;13455;51.480;7.594;2023-02-11T00:30:23;6.30;99.90
25568;DHT22;13455;51.480;7.594;2023-02-11T00:32:49;6.20;99.90
25568;DHT22;13455;51.480;7.594;2023-02-11T00:35:15;6.40;99.90
25568;DHT22;13455;51.480;7.594;2023-02-11T00:37:40;6.30;99.90
25568;DHT22;13455;51.480;7.594;2023-02-11T00:40:06;6.20;99.90
25568;DHT22;13455;51.480;7.594;2023-02-11T00:42:32;6.30;99.90
25568;DHT22;13455;51.480;7.594;2023-02-11T00:45:00;6.20;99.90
25568;DHT22;13455;51.480;7.594;2023-02-11T00:47:25;6.20;99.90
25568;DHT22;13455;51.480;7.594;2023-02-11T00:49:51;6.30;99.90
25568;DHT22;13455;51.480;7.594;2023-02-11T00:52:17;6.30;99.90
25568;DHT22;13455;51.480;7.594;2023-02-11T00:54:42;6.30;99.90
25568;DHT22;13455;51.480;7.594;2023-02-11T00:57:08;6.30;99.90
25568;DHT22;13455;51.480;7.594;2023-02-11T00:59:33;6.30;99.90
25568;DHT22;13455;51.480;7.594;2023-02-11T01:01:59;6.30;99.90
25568;DHT22;13455;51.480;7.594;2023-02-11T01:04:25;6.30;99.90
25568;DHT22;13455;51.480;7.594;2023-02-11T01:06:51;6.30;99.90
25568;DHT22;13455;51.480;7.594;2023-02-11T01:09:16;6.30;99.90
25568;DHT22;13455;51.480;7.594;2023-02-11T01:11:42;6.30;99.90
25568;DHT22;13455;51.480;7.594;2023-02-11T01:14:08;6.30;99.90
25568;DHT22;13455;51.480;7.594;2023-02-11T01:16:34;6.30;99.90
25568;DHT22;13455;51.480;7.594;2023-02-11T01:18:59;6.30;99.90
25568;DHT22;13455;51.480;7.594;2023-02-11T01:21:25;6.30;99.90
25568;DHT22;13455;51.480;7.594;2023-02-11T01:23:51;6.30;99.90
25568;DHT22;13455;51.480;7.594;2023-02-11T01:26:17;6.30;99.90
25568;DHT22;13455;51.480;7.594;2023-02-11T01:28:43;6.30;99.90
25568;DHT22;13455;51.480;7.594;2023-02-11T01:31:08;6.30;99.90
25568;DHT22;13455;51.480;7.594;2023-02-11T01:33:34;6.30;99.90
25568;DHT22;13455;51.480;7.594;2023-02-11T01:36:02;6.30;99.90
25568;DHT22;13455;51.480;7.594;2023-02-11T01:38:29;6.30;99.90
25568;DHT22;13455;51.480;7.594;2023-02-11T01:41:01;6.30;99.90
25568;DHT22;13455;51.480;7.594;2023-02-11T01:43:38;6.30;99.90
25568;DHT22;13455;51.480;7.594;2023-02-11T01:48:34;6.40;99.90
25568;DHT22;13455;51.480;7.594;2023-02-11T01:51:06;6.40;99.90
25568;DHT22;13455;51.480;7.594;2023-02-11T01:53:34;6.40;99.90
25568;DHT22;13455;51.480;7.594;2023-02-11T01:56:20;6.60;99.90
25568;DHT22;13455;51.480;7.594;2023-02-11T01:59:14;6.40;99.90
25568;DHT22;13455;51.480;7.594;2023-02-11T02:01:43;6.40;99.90
25568;DHT22;13455;51.480;7.594;2023-02-11T02:04:10;6.50;99.90
25568;DHT22;13455;51.480;7.594;2023-02-11T02:06:53;6.60;99.90
25568;DHT22;13455;51.480;7.594;2023-02-11T02:09:25;6.40;99.90
25568;DHT22;13455;51.480;7.594;2023-02-11T02:11:53;6.40;99.90
25568;DHT22;13455;51.480;7.594;2023-02-11T02:14:19;6.40;99.90
25568;DHT22;13455;51.480;7.594;2023-02-11T02:16:45;6.40;99.90
25568;DHT22;13455;51.480;7.594;2023-02-11T02:35:51;6.30;99.90
25568;DHT22;13455;51.480;7.594;2023-02-11T02:41:18;6.30;99.90
25568;DHT22;13455;51.480;7.594;2023-02-11T02:43:48;6.30;99.90
25568;DHT22;13455;51.480;7.594;2023-02-11T02:46:21;6.30;99.90
25568;DHT22;13455;51.480;7.594;2023-02-11T02:48:48;6.30;99.90
25568;DHT22;13455;51.480;7.594;2023-02-11T02:54:34;6.30;99.90
25568;DHT22;13455;51.480;7.594;2023-02-11T02:57:17;6.30;99.90
25568;DHT22;13455;51.480;7.594;2023-02-11T03:07:42;6.30;99.90
25568;DHT22;13455;51.480;7.594;2023-02-11T03:10:20;6.30;99.90
25568;DHT22;13455;51.480;7.594;2023-02-11T03:12:48;6.30;99.90
25568;DHT22;13455;51.480;7.594;2023-02-11T03:15:16;6.30;99.90
25568;DHT22;13455;51.480;7.594;2023-02-11T03:17:47;6.30;99.90
25568;DHT22;13455;51.480;7.594;2023-02-11T03:20:16;6.30;99.90
25568;DHT22;13455;51.480;7.594;2023-02-11T03:25:13;6.30;99.90
25568;DHT22;13455;51.480;7.594;2023-02-11T03:27:53;6.30;99.90
25568;DHT22;13455;51.480;7.594;2023-02-11T03:30:33;6.30;99.90
25568;DHT22;13455;51.480;7.594;2023-02-11T03:33:10;6.30;99.90
25568;DHT22;13455;51.480;7.594;2023-02-11T03:35:49;6.30;99.90
25568;DHT22;13455;51.480;7.594;2023-02-11T03:38:25;5.30;99.90
25568;DHT22;13455;51.480;7.594;2023-02-11T03:40:54;6.30;99.90
25568;DHT22;13455;51.480;7.594;2023-02-11T03:43:29;6.30;99.90
25568;DHT22;13455;51.480;7.594;2023-02-11T03:45:56;6.30;99.90
25568;DHT22;13455;51.480;7.594;2023-02-11T03:48:32;6.30;99.90
25568;DHT22;13455;51.480;7.594;2023-02-11T03:51:00;6.30;99.90
25568;DHT22;13455;51.480;7.594;2023-02-11T03:53:27;6.30;99.90
25568;DHT22;13455;51.480;7.594;2023-02-11T03:55:54;6.30;99.90
25568;DHT22;13455;51.480;7.594;2023-02-11T03:58:21;6.30;99.90
25568;DHT22;13455;51.480;7.594;2023-02-11T04:00:47;6.30;99.90
25568;DHT22;13455;51.480;7.594;2023-02-11T04:03:13;6.30;99.90
25568;DHT22;13455;51.480;7.594;2023-02-11T04:05:39;6.30;99.90
25568;DHT22;13455;51.480;7.594;2023-02-11T04:08:05;6.30;99.90
25568;DHT22;13455;51.480;7.594;2023-02-11T04:10:31;6.30;99.90
25568;DHT22;13455;51.480;7.594;2023-02-11T04:12:57;6.30;99.90
25568;DHT22;13455;51.480;7.594;2023-02-11T04:15:23;6.30;99.90
25568;DHT22;13455;51.480;7.594;2023-02-11T04:17:49;6.20;99.90
25568;DHT22;13455;51.480;7.594;2023-02-11T04:20:14;6.30;99.90
25568;DHT22;13455;51.480;7.594;2023-02-11T04:22:40;6.20;99.90
25568;DHT22;13455;51.480;7.594;2023-02-11T04:25:07;6.20;99.90
25568;DHT22;13455;51.480;7.594;2023-02-11T04:27:33;6.20;99.90
25568;DHT22;13455;51.480;7.594;2023-02-11T04:29:59;6.20;99.90
25568;DHT22;13455;51.480;7.594;2023-02-11T04:32:28;6.20;99.90
25568;DHT22;13455;51.480;7.594;2023-02-11T04:34:53;6.20;99.90
25568;DHT22;13455;51.480;7.594;2023-02-11T04:37:19;6.10;99.90
25568;DHT22;13455;51.480;7.594;2023-02-11T04:39:45;6.10;99.90
25568;DHT22;13455;51.480;7.594;2023-02-11T04:51:56;6.50;99.90
25568;DHT22;13455;51.480;7.594;2023-02-11T04:56:47;6.10;99.90
25568;DHT22;13455;51.480;7.594;2023-02-11T04:59:14;6.10;99.90
25568;DHT22;13455;51.480;7.594;2023-02-11T05:01:40;6.10;99.90
25568;DHT22;13455;51.480;7.594;2023-02-11T05:04:05;6.10;99.90
25568;DHT22;13455;51.480;7.594;2023-02-11T05:06:31;6.00;99.90
25568;DHT22;13455;51.480;7.594;2023-02-11T05:11:24;6.20;99.90
25568;DHT22;13455;51.480;7.594;2023-02-11T05:26:02;6.20;99.90
25568;DHT22;13455;51.480;7.594;2023-02-11T05:28:28;6.10;99.90
25568;DHT22;13455;51.480;7.594;2023-02-11T05:30:54;6.00;99.90
25568;DHT22;13455;51.480;7.594;2023-02-11T05:33:20;6.00;99.90
25568;DHT22;13455;51.480;7.594;2023-02-11T05:35:45;5.90;99.90
25568;DHT22;13455;51.480;7.594;2023-02-11T05:38:11;6.00;99.90
25568;DHT22;13455;51.480;7.594;2023-02-11T05:40:36;5.90;99.90
25568;DHT22;13455;51.480;7.594;2023-02-11T05:43:02;5.90;99.90
25568;DHT22;13455;51.480;7.594;2023-02-11T05:45:28;5.90;99.90
25568;DHT22;13455;51.480;7.594;2023-02-11T05:47:54;5.80;99.90
25568;DHT22;13455;51.480;7.594;2023-02-11T05:50:19;6.00;99.90
25568;DHT22;13455;51.480;7.594;2023-02-11T05:52:45;6.00;99.90
25568;DHT22;13455;51.480;7.594;2023-02-11T05:55:11;5.90;99.90
25568;DHT22;13455;51.480;7.594;2023-02-11T05:57:37;5.90;99.90
25568;DHT22;13455;51.480;7.594;2023-02-11T06:00:04;6.20;99.90
25568;DHT22;13455;51.480;7.594;2023-02-11T06:02:30;6.00;99.90
25568;DHT22;13455;51.480;7.594;2023-02-11T06:04:55;6.10;99.90
25568;DHT22;13455;51.480;7.594;2023-02-11T06:07:21;6.00;99.90
25568;DHT22;13455;51.480;7.594;2023-02-11T06:09:47;5.90;99.90
25568;DHT22;13455;51.480;7.594;2023-02-11T06:12:12;6.10;99.90
25568;DHT22;13455;51.480;7.594;2023-02-11T06:14:38;5.90;99.90
25568;DHT22;13455;51.480;7.594;2023-02-11T06:17:03;6.30;99.90
25568;DHT22;13455;51.480;7.594;2023-02-11T06:19:29;6.10;99.90
25568;DHT22;13455;51.480;7.594;2023-02-11T06:21:56;6.20;99.90
25568;DHT22;13455;51.480;7.594;2023-02-11T06:26:47;5.90;99.90
25568;DHT22;13455;51.480;7.594;2023-02-11T06:29:13;5.90;99.90
25568;DHT22;13455;51.480;7.594;2023-02-11T06:31:39;5.90;99.90
25568;DHT22;13455;51.480;7.594;2023-02-11T06:34:05;6.10;99.90
25568;DHT22;13455;51.480;7.594;2023-02-11T06:38:57;6.10;99.90
25568;DHT22;13455;51.480;7.594;2023-02-11T06:43:49;6.10;99.90
25568;DHT22;13455;51.480;7.594;2023-02-11T06:46:16;6.00;99.90
25568;DHT22;13455;51.480;7.594;2023-02-11T06:48:41;6.10;99.90
25568;DHT22;13455;51.480;7.594;2023-02-11T06:51:10;6.10;99.90
25568;DHT22;13455;51.480;7.594;2023-02-11T06:53:38;6.20;99.90
25568;DHT22;13455;51.480;7.594;2023-02-11T06:56:10;6.80;99.90
25568;DHT22;13455;51.480;7.594;2023-02-11T06:58:36;6.20;99.90
25568;DHT22;13455;51.480;7.594;2023-02-11T07:01:07;6.20;99.90
25568;DHT22;13455;51.480;7.594;2023-02-11T07:03:34;6.00;99.90
25568;DHT22;13455;51.480;7.594;2023-02-11T07:06:01;6.00;99.90
25568;DHT22;13455;51.480;7.594;2023-02-11T07:08:27;6.20;99.90
25568;DHT22;13455;51.480;7.594;2023-02-11T07:10:53;6.00;99.90
25568;DHT22;13455;51.480;7.594;2023-02-11T07:13:18;6.00;99.90
25568;DHT22;13455;51.480;7.594;2023-02-11T07:18:10;6.10;99.90
25568;DHT22;13455;51.480;7.594;2023-02-11T07:20:36;6.60;99.90
25568;DHT22;13455;51.480;7.594;2023-02-11T07:27:55;6.20;99.90
25568;DHT22;13455;51.480;7.594;2023-02-11T07:30:20;6.00;99.90
25568;DHT22;13455;51.480;7.594;2023-02-11T07:32:47;6.30;99.90
25568;DHT22;13455;51.480;7.594;2023-02-11T07:35:12;6.20;99.90
25568;DHT22;13455;51.480;7.594;2023-02-11T07:37:39;6.40;99.90
25568;DHT22;13455;51.480;7.594;2023-02-11T07:40:06;6.70;99.90
25568;DHT22;13455;51.480;7.594;2023-02-11T07:42:33;6.20;99.90
25568;DHT22;13455;51.480;7.594;2023-02-11T07:44:59;6.30;99.90
25568;DHT22;13455;51.480;7.594;2023-02-11T07:47:25;6.30;99.90
25568;DHT22;13455;51.480;7.594;2023-02-11T07:49:51;6.20;99.90
25568;DHT22;13455;51.480;7.594;2023-02-11T07:52:16;6.20;99.90
25568;DHT22;13455;51.480;7.594;2023-02-11T07:54:42;6.10;99.90
25568;DHT22;13455;51.480;7.594;2023-02-11T07:57:07;6.30;99.90
25568;DHT22;13455;51.480;7.594;2023-02-11T07:59:33;6.30;99.90
25568;DHT22;13455;51.480;7.594;2023-02-11T08:01:58;6.20;99.90
25568;DHT22;13455;51.480;7.594;2023-02-11T08:04:24;6.30;99.90
25568;DHT22;13455;51.480;7.594;2023-02-11T08:06:50;6.10;99.90
25568;DHT22;13455;51.480;7.594;2023-02-11T08:09:20;6.30;99.90
25568;DHT22;13455;51.480;7.594;2023-02-11T08:11:45;6.30;99.90
25568;DHT22;13455;51.480;7.594;2023-02-11T08:14:11;6.20;99.90
25568;DHT22;13455;51.480;7.594;2023-02-11T08:16:37;6.20;99.90
25568;DHT22;13455;51.480;7.594;2023-02-11T08:19:11;6.30;99.90
25568;DHT22;13455;51.480;7.594;2023-02-11T08:21:37;6.50;99.90
25568;DHT22;13455;51.480;7.594;2023-02-11T08:24:04;6.70;99.90
25568;DHT22;13455;51.480;7.594;2023-02-11T08:26:30;6.40;99.90
25568;DHT22;13455;51.480;7.594;2023-02-11T08:28:59;6.60;99.90
25568;DHT22;13455;51.480;7.594;2023-02-11T08:31:32;6.50;99.90
25568;DHT22;13455;51.480;7.594;2023-02-11T08:33:58;6.40;99.90
25568;DHT22;13455;51.480;7.594;2023-02-11T08:36:26;6.50;99.90
25568;DHT22;13455;51.480;7.594;2023-02-11T08:38:54;6.60;99.90
25568;DHT22;13455;51.480;7.594;2023-02-11T08:41:20;7.00;99.90
25568;DHT22;13455;51.480;7.594;2023-02-11T08:43:45;6.70;99.90
25568;DHT22;13455;51.480;7.594;2023-02-11T08:46:15;7.00;99.90
25568;DHT22;13455;51.480;7.594;2023-02-11T08:48:41;6.50;99.90
25568;DHT22;13455;51.480;7.594;2023-02-11T08:51:08;6.80;99.90
25568;DHT22;13455;51.480;7.594;2023-02-11T08:53:35;6.60;99.90
25568;DHT22;13455;51.480;7.594;2023-02-11T08:56:01;6.60;99.90
25568;DHT22;13455;51.480;7.594;2023-02-11T08:58:27;6.60;99.90
25568;DHT22;13455;51.480;7.594;2023-02-11T09:00:52;6.80;99.90
25568;DHT22;13455;51.480;7.594;2023-02-11T09:03:18;7.00;99.90
25568;DHT22;13455;51.480;7.594;2023-02-11T09:05:46;6.70;99.90
25568;DHT22;13455;51.480;7.594;2023-02-11T09:08:12;6.70;99.90
25568;DHT22;13455;51.480;7.594;2023-02-11T09:10:38;6.60;99.90
25568;DHT22;13455;51.480;7.594;2023-02-11T09:13:05;6.80;99.90
25568;DHT22;13455;51.480;7.594;2023-02-11T09:15:31;6.90;99.90
25568;DHT22;13455;51.480;7.594;2023-02-11T09:17:57;6.80;99.90
25568;DHT22;13455;51.480;7.594;2023-02-11T09:20:23;7.00;99.90
25568;DHT22;13455;51.480;7.594;2023-02-11T09:22:49;6.80;99.90
25568;DHT22;13455;51.480;7.594;2023-02-11T09:25:14;6.90;99.90
25568;DHT22;13455;51.480;7.594;2023-02-11T09:27:40;6.90;99.90
25568;DHT22;13455;51.480;7.594;2023-02-11T09:30:06;6.80;99.90
25568;DHT22;13455;51.480;7.594;2023-02-11T09:32:32;6.90;99.90
25568;DHT22;13455;51.480;7.594;2023-02-11T09:34:58;7.00;99.90
25568;DHT22;13455;51.480;7.594;2023-02-11T09:37:23;6.90;99.90
25568;DHT22;13455;51.480;7.594;2023-02-11T09:39:49;7.30;99.90
25568;DHT22;13455;51.480;7.594;2023-02-11T09:42:48;6.90;99.90
25568;DHT22;13455;51.480;7.594;2023-02-11T09:45:14;7.00;99.90
25568;DHT22;13455;51.480;7.594;2023-02-11T09:50:33;7.30;99.90
25568;DHT22;13455;51.480;7.594;2023-02-11T09:53:26;7.20;99.90
25568;DHT22;13455;51.480;7.594;2023-02-11T09:56:01;7.40;99.90
25568;DHT22;13455;51.480;7.594;2023-02-11T09:58:31;7.20;99.90
25568;DHT22;13455;51.480;7.594;2023-02-11T10:14:56;7.20;99.90
25568;DHT22;13455;51.480;7.594;2023-02-11T10:22:57;7.20;99.90
25568;DHT22;13455;51.480;7.594;2023-02-11T10:25:35;7.20;99.90
25568;DHT22;13455;51.480;7.594;2023-02-11T10:28:11;7.30;99.90
25568;DHT22;13455;51.480;7.594;2023-02-11T10:30:42;7.30;99.90
25568;DHT22;13455;51.480;7.594;2023-02-11T10:33:26;7.50;99.90
25568;DHT22;13455;51.480;7.594;2023-02-11T10:35:52;7.60;99.90
25568;DHT22;13455;51.480;7.594;2023-02-11T10:38:18;7.40;99.90
25568;DHT22;13455;51.480;7.594;2023-02-11T10:40:44;7.40;99.90
25568;DHT22;13455;51.480;7.594;2023-02-11T10:43:13;7.30;99.90
25568;DHT22;13455;51.480;7.594;2023-02-11T10:45:49;7.50;99.90
25568;DHT22;13455;51.480;7.594;2023-02-11T10:53:37;7.50;99.90
25568;DHT22;13455;51.480;7.594;2023-02-11T10:56:05;7.70;99.90
25568;DHT22;13455;51.480;7.594;2023-02-11T11:01:04;7.80;99.90
25568;DHT22;13455;51.480;7.594;2023-02-11T11:03:38;7.60;99.90
25568;DHT22;13455;51.480;7.594;2023-02-11T11:06:10;7.70;99.90
25568;DHT22;13455;51.480;7.594;2023-02-11T11:08:47;8.10;99.90
25568;DHT22;13455;51.480;7.594;2023-02-11T11:11:18;7.80;99.90
25568;DHT22;13455;51.480;7.594;2023-02-11T11:16:20;8.10;99.90
25568;DHT22;13455;51.480;7.594;2023-02-11T11:18:48;7.90;99.90
25568;DHT22;13455;51.480;7.594;2023-02-11T11:21:25;7.10;99.90
25568;DHT22;13455;51.480;7.594;2023-02-11T11:24:01;7.80;99.90
25568;DHT22;13455;51.480;7.594;2023-02-11T11:26:43;7.60;99.90
25568;DHT22;13455;51.480;7.594;2023-02-11T11:29:14;7.70;99.90
25568;DHT22;13455;51.480;7.594;2023-02-11T11:31:58;7.80;99.90
25568;DHT22;13455;51.480;7.594;2023-02-11T11:34:41;7.60;99.90
25568;DHT22;13455;51.480;7.594;2023-02-11T11:37:19;7.90;99.90
25568;DHT22;13455;51.480;7.594;2023-02-11T11:39:57;7.80;99.90
25568;DHT22;13455;51.480;7.594;2023-02-11T11:42:28;7.70;99.90
25568;DHT22;13455;51.480;7.594;2023-02-11T11:50:18;7.80;99.90
25568;DHT22;13455;51.480;7.594;2023-02-11T11:53:03;7.70;99.90
25568;DHT22;13455;51.480;7.594;2023-02-11T11:55:56;7.80;99.90
25568;DHT22;13455;51.480;7.594;2023-02-11T11:58:23;7.80;99.90
25568;DHT22;13455;51.480;7.594;2023-02-11T12:01:01;7.70;99.90
25568;DHT22;13455;51.480;7.594;2023-02-11T12:06:39;7.90;99.90
25568;DHT22;13455;51.480;7.594;2023-02-11T12:17:17;7.80;99.90
25568;DHT22;13455;51.480;7.594;2023-02-11T12:20:04;8.00;99.90
25568;DHT22;13455;51.480;7.594;2023-02-11T12:25:42;7.90;99.90
25568;DHT22;13455;51.480;7.594;2023-02-11T12:36:30;8.10;99.90
25568;DHT22;13455;51.480;7.594;2023-02-11T12:39:48;8.10;99.90
25568;DHT22;13455;51.480;7.594;2023-02-11T12:42:21;8.10;99.90
25568;DHT22;13455;51.480;7.594;2023-02-11T12:45:15;8.00;99.90
25568;DHT22;13455;51.480;7.594;2023-02-11T12:50:43;8.10;99.90
25568;DHT22;13455;51.480;7.594;2023-02-11T12:53:19;8.10;99.90
25568;DHT22;13455;51.480;7.594;2023-02-11T12:55:52;8.10;99.90
25568;DHT22;13455;51.480;7.594;2023-02-11T12:58:22;8.00;99.90
25568;DHT22;13455;51.480;7.594;2023-02-11T13:01:07;8.10;99.90
25568;DHT22;13455;51.480;7.594;2023-02-11T13:03:40;8.30;99.90
25568;DHT22;13455;51.480;7.594;2023-02-11T13:06:11;8.50;99.90
25568;DHT22;13455;51.480;7.594;2023-02-11T13:08:49;8.10;99.90
25568;DHT22;13455;51.480;7.594;2023-02-11T13:11:25;8.20;99.90
25568;DHT22;13455;51.480;7.594;2023-02-11T13:14:43;8.20;99.90
25568;DHT22;13455;51.480;7.594;2023-02-11T13:16:46;8.20;99.90
25568;DHT22;13455;51.480;7.594;2023-02-11T13:24:42;8.20;99.90
25568;DHT22;13455;51.480;7.594;2023-02-11T13:35:36;8.50;99.90
25568;DHT22;13455;51.480;7.594;2023-02-11T13:38:04;8.40;99.90
25568;DHT22;13455;51.480;7.594;2023-02-11T13:40:37;8.20;99.90
25568;DHT22;13455;51.480;7.594;2023-02-11T13:43:06;8.40;99.90
25568;DHT22;13455;51.480;7.594;2023-02-11T13:45:45;8.50;99.90
25568;DHT22;13455;51.480;7.594;2023-02-11T13:48:23;8.50;99.90
25568;DHT22;13455;51.480;7.594;2023-02-11T13:50:55;8.50;99.90
25568;DHT22;13455;51.480;7.594;2023-02-11T13:53:22;8.30;99.90
25568;DHT22;13455;51.480;7.594;2023-02-11T13:55:53;8.60;99.90
25568;DHT22;13455;51.480;7.594;2023-02-11T14:00:54;8.40;99.90
25568;DHT22;13455;51.480;7.594;2023-02-11T14:03:27;8.40;99.90
25568;DHT22;13455;51.480;7.594;2023-02-11T14:06:17;8.40;99.90
25568;DHT22;13455;51.480;7.594;2023-02-11T14:09:31;8.60;99.90
25568;DHT22;13455;51.480;7.594;2023-02-11T14:12:22;8.20;99.90
25568;DHT22;13455;51.480;7.594;2023-02-11T14:15:16;7.70;99.90
25568;DHT22;13455;51.480;7.594;2023-02-11T14:17:42;8.40;99.90
25568;DHT22;13455;51.480;7.594;2023-02-11T14:20:42;8.70;99.90
25568;DHT22;13455;51.480;7.594;2023-02-11T14:23:21;8.50;99.90
25568;DHT22;13455;51.480;7.594;2023-02-11T14:25:58;8.30;99.90
25568;DHT22;13455;51.480;7.594;2023-02-11T14:28:27;8.40;99.90
25568;DHT22;13455;51.480;7.594;2023-02-11T14:31:11;8.60;99.90
25568;DHT22;13455;51.480;7.594;2023-02-11T14:34:07;8.50;99.90
25568;DHT22;13455;51.480;7.594;2023-02-11T14:41:46;8.50;99.90
25568;DHT22;13455;51.480;7.594;2023-02-11T14:44:19;8.80;99.90
25568;DHT22;13455;51.480;7.594;2023-02-11T14:46:47;8.40;99.90
25568;DHT22;13455;51.480;7.594;2023-02-11T14:51:54;8.50;99.90
25568;DHT22;13455;51.480;7.594;2023-02-11T14:54:24;8.70;99.90
25568;DHT22;13455;51.480;7.594;2023-02-11T14:57:15;8.60;99.90
25568;DHT22;13455;51.480;7.594;2023-02-11T14:59:56;8.60;99.90
25568;DHT22;13455;51.480;7.594;2023-02-11T15:02:35;8.80;99.90
25568;DHT22;13455;51.480;7.594;2023-02-11T15:05:24;8.90;99.90
25568;DHT22;13455;51.480;7.594;2023-02-11T15:07:57;7.50;99.90
25568;DHT22;13455;51.480;7.594;2023-02-11T15:10:36;9.40;99.90
25568;DHT22;13455;51.480;7.594;2023-02-11T15:13:05;9.10;99.90
25568;DHT22;13455;51.480;7.594;2023-02-11T15:15:32;8.90;99.90
25568;DHT22;13455;51.480;7.594;2023-02-11T15:18:02;8.60;99.90
25568;DHT22;13455;51.480;7.594;2023-02-11T15:20:30;8.60;99.90
25568;DHT22;13455;51.480;7.594;2023-02-11T15:23:06;8.90;99.90
25568;DHT22;13455;51.480;7.594;2023-02-11T15:25:32;8.60;99.90
25568;DHT22;13455;51.480;7.594;2023-02-11T15:27:58;8.70;99.90
25568;DHT22;13455;51.480;7.594;2023-02-11T15:30:25;8.70;99.90
25568;DHT22;13455;51.480;7.594;2023-02-11T15:32:53;8.70;99.90
25568;DHT22;13455;51.480;7.594;2023-02-11T15:37:55;8.80;99.90
25568;DHT22;13455;51.480;7.594;2023-02-11T15:40:27;8.70;99.90
25568;DHT22;13455;51.480;7.594;2023-02-11T15:45:24;8.80;99.90
25568;DHT22;13455;51.480;7.594;2023-02-11T15:48:13;8.80;99.90
25568;DHT22;13455;51.480;7.594;2023-02-11T15:50:41;8.80;99.90
25568;DHT22;13455;51.480;7.594;2023-02-11T15:59:09;9.70;99.90
25568;DHT22;13455;51.480;7.594;2023-02-11T16:01:37;8.70;99.90
25568;DHT22;13455;51.480;7.594;2023-02-11T16:04:04;8.70;99.90
25568;DHT22;13455;51.480;7.594;2023-02-11T16:06:38;8.70;99.90
25568;DHT22;13455;51.480;7.594;2023-02-11T16:11:36;8.70;99.90
25568;DHT22;13455;51.480;7.594;2023-02-11T16:19:31;8.60;99.90
25568;DHT22;13455;51.480;7.594;2023-02-11T16:21:59;8.50;99.90
25568;DHT22;13455;51.480;7.594;2023-02-11T16:24:31;8.60;99.90
25568;DHT22;13455;51.480;7.594;2023-02-11T16:27:00;8.60;99.90
25568;DHT22;13455;51.480;7.594;2023-02-11T16:29:31;8.60;99.90
25568;DHT22;13455;51.480;7.594;2023-02-11T16:32:13;8.60;99.90
25568;DHT22;13455;51.480;7.594;2023-02-11T16:34:39;8.60;99.90
25568;DHT22;13455;51.480;7.594;2023-02-11T16:37:05;8.60;99.90
25568;DHT22;13455;51.480;7.594;2023-02-11T16:39:31;8.60;99.90
25568;DHT22;13455;51.480;7.594;2023-02-11T16:41:57;8.60;99.90
25568;DHT22;13455;51.480;7.594;2023-02-11T16:44:23;8.60;99.90
25568;DHT22;13455;51.480;7.594;2023-02-11T16:46:49;8.60;99.90
25568;DHT22;13455;51.480;7.594;2023-02-11T16:49:27;8.60;99.90
25568;DHT22;13455;51.480;7.594;2023-02-11T16:51:58;8.60;99.90
25568;DHT22;13455;51.480;7.594;2023-02-11T16:54:26;8.60;99.90
25568;DHT22;13455;51.480;7.594;2023-02-11T16:56:51;8.60;99.90
25568;DHT22;13455;51.480;7.594;2023-02-11T16:59:17;7.50;99.90
25568;DHT22;13455;51.480;7.594;2023-02-11T17:01:44;8.40;99.90
25568;DHT22;13455;51.480;7.594;2023-02-11T17:04:22;8.50;99.90
25568;DHT22;13455;51.480;7.594;2023-02-11T17:06:48;8.50;99.90
25568;DHT22;13455;51.480;7.594;2023-02-11T17:09:18;8.50;99.90
25568;DHT22;13455;51.480;7.594;2023-02-11T17:11:44;8.50;99.90
25568;DHT22;13455;51.480;7.594;2023-02-11T17:14:09;8.40;99.90
25568;DHT22;13455;51.480;7.594;2023-02-11T17:16:35;8.40;99.90
25568;DHT22;13455;51.480;7.594;2023-02-11T17:19:01;8.40;99.90
25568;DHT22;13455;51.480;7.594;2023-02-11T17:21:26;8.40;99.90
25568;DHT22;13455;51.480;7.594;2023-02-11T17:23:52;8.40;99.90
25568;DHT22;13455;51.480;7.594;2023-02-11T17:26:17;8.40;99.90
25568;DHT22;13455;51.480;7.594;2023-02-11T17:28:43;8.40;99.90
25568;DHT22;13455;51.480;7.594;2023-02-11T17:31:09;8.40;99.90
25568;DHT22;13455;51.480;7.594;2023-02-11T17:33:35;8.20;99.90
25568;DHT22;13455;51.480;7.594;2023-02-11T17:36:06;8.40;99.90
25568;DHT22;13455;51.480;7.594;2023-02-11T17:38:33;8.40;99.90
25568;DHT22;13455;51.480;7.594;2023-02-11T17:41:00;8.40;99.90
25568;DHT22;13455;51.480;7.594;2023-02-11T17:43:26;8.30;99.90
25568;DHT22;13455;51.480;7.594;2023-02-11T17:45:52;8.40;99.90
25568;DHT22;13455;51.480;7.594;2023-02-11T17:48:17;8.30;99.90
25568;DHT22;13455;51.480;7.594;2023-02-11T17:50:43;8.40;99.90
25568;DHT22;13455;51.480;7.594;2023-02-11T17:53:09;8.40;99.90
25568;DHT22;13455;51.480;7.594;2023-02-11T17:55:34;8.40;99.90
25568;DHT22;13455;51.480;7.594;2023-02-11T17:58:00;8.40;99.90
25568;DHT22;13455;51.480;7.594;2023-02-11T18:00:26;8.40;99.90
25568;DHT22;13455;51.480;7.594;2023-02-11T18:02:55;8.30;99.90
25568;DHT22;13455;51.480;7.594;2023-02-11T18:05:23;8.40;99.90
25568;DHT22;13455;51.480;7.594;2023-02-11T18:07:51;8.30;99.90
25568;DHT22;13455;51.480;7.594;2023-02-11T18:10:18;8.30;99.90
25568;DHT22;13455;51.480;7.594;2023-02-11T18:12:44;8.30;99.90
25568;DHT22;13455;51.480;7.594;2023-02-11T18:15:11;8.30;99.90
25568;DHT22;13455;51.480;7.594;2023-02-11T18:17:36;8.30;99.90
25568;DHT22;13455;51.480;7.594;2023-02-11T18:20:02;8.30;99.90
25568;DHT22;13455;51.480;7.594;2023-02-11T18:22:28;8.30;99.90
25568;DHT22;13455;51.480;7.594;2023-02-11T18:24:58;8.30;99.90
25568;DHT22;13455;51.480;7.594;2023-02-11T18:27:23;8.30;99.90
25568;DHT22;13455;51.480;7.594;2023-02-11T18:29:49;8.30;99.90
25568;DHT22;13455;51.480;7.594;2023-02-11T18:32:14;8.30;99.90
25568;DHT22;13455;51.480;7.594;2023-02-11T18:34:41;8.30;99.90
25568;DHT22;13455;51.480;7.594;2023-02-11T18:37:07;8.20;99.90
25568;DHT22;13455;51.480;7.594;2023-02-11T18:39:32;8.30;99.90
25568;DHT22;13455;51.480;7.594;2023-02-11T18:41:58;8.30;99.90
25568;DHT22;13455;51.480;7.594;2023-02-11T18:44:25;8.20;99.90
25568;DHT22;13455;51.480;7.594;2023-02-11T18:46:51;8.20;99.90
25568;DHT22;13455;51.480;7.594;2023-02-11T18:49:17;8.20;99.90
25568;DHT22;13455;51.480;7.594;2023-02-11T18:51:43;8.10;99.90
25568;DHT22;13455;51.480;7.594;2023-02-11T18:54:09;8.20;99.90
25568;DHT22;13455;51.480;7.594;2023-02-11T18:56:34;8.10;99.90
25568;DHT22;13455;51.480;7.594;2023-02-11T18:59:00;8.10;99.90
25568;DHT22;13455;51.480;7.594;2023-02-11T19:01:27;8.10;99.90
25568;DHT22;13455;51.480;7.594;2023-02-11T19:03:54;8.10;99.90